sensor_id;sensor_type;location;lat;lon;timestamp;temperature;humidity
39045;DHT22;52192;52.002;5.956;2023-07-28T00:01:34;19.90;90.10
39045;DHT22;52192;52.002;5.956;2023-07-28T00:03:59;19.90;90.10
39045;DHT22;52192;52.002;5.956;2023-07-28T00:06:25;19.90;90.10
39045;DHT22;52192;52.002;5.956;2023-07-28T00:08:51;20.00;90.00
39045;DHT22;52192;52.002;5.956;2023-07-28T00:11:16;20.00;90.00
39045;DHT22;52192;52.002;5.956;2023-07-28T00:13:42;20.00;90.00
39045;DHT22;52192;52.002;5.956;2023-07-28T00:16:09;20.00;89.90
39045;DHT22;52192;52.002;5.956;2023-07-28T00:18:35;20.00;90.00
39045;DHT22;52192;52.002;5.956;2023-07-28T00:21:01;20.00;90.00
39045;DHT22;52192;52.002;5.956;2023-07-28T00:23:28;19.90;90.00
39045;DHT22;52192;52.002;5.956;2023-07-28T00:25:53;20.00;90.00
39045;DHT22;52192;52.002;5.956;2023-07-28T00:28:19;20.00;90.00
39045;DHT22;52192;52.002;5.956;2023-07-28T00:30:49;20.00;90.00
39045;DHT22;52192;52.002;5.956;2023-07-28T00:33:15;20.00;90.00
39045;DHT22;52192;52.002;5.956;2023-07-28T00:35:41;20.00;90.00
39045;DHT22;52192;52.002;5.956;2023-07-28T00:38:07;20.00;90.00
39045;DHT22;52192;52.002;5.956;2023-07-28T00:40:32;20.00;89.90
39045;DHT22;52192;52.002;5.956;2023-07-28T00:42:58;20.00;90.00
39045;DHT22;52192;52.002;5.956;2023-07-28T00:45:24;20.00;90.00
39045;DHT22;52192;52.002;5.956;2023-07-28T00:47:51;20.00;90.00
39045;DHT22;52192;52.002;5.956;2023-07-28T00:50:17;20.00;90.00
39045;DHT22;52192;52.002;5.956;2023-07-28T00:52:43;20.00;89.90
39045;DHT22;52192;52.002;5.956;2023-07-28T00:55:09;20.00;90.00
39045;DHT22;52192;52.002;5.956;2023-07-28T00:57:35;20.00;90.00
39045;DHT22;52192;52.002;5.956;2023-07-28T01:00:01;20.00;90.00
39045;DHT22;52192;52.002;5.956;2023-07-28T01:02:26;20.00;90.00
39045;DHT22;52192;52.002;5.956;2023-07-28T01:04:52;20.00;90.00
39045;DHT22;52192;52.002;5.956;2023-07-28T01:10:37;20.00;90.00
39045;DHT22;52192;52.002;5.956;2023-07-28T01:13:04;20.00;90.00
39045;DHT22;52192;52.002;5.956;2023-07-28T01:15:29;20.00;90.00
39045;DHT22;52192;52.002;5.956;2023-07-28T01:17:55;20.00;90.00
39045;DHT22;52192;52.002;5.956;2023-07-28T01:20:22;20.00;89.90
39045;DHT22;52192;52.002;5.956;2023-07-28T01:25:53;20.00;90.00
39045;DHT22;52192;52.002;5.956;2023-07-28T01:28:21;19.90;90.10
39045;DHT22;52192;52.002;5.956;2023-07-28T01:30:47;19.90;90.10
39045;DHT22;52192;52.002;5.956;2023-07-28T01:33:13;19.90;90.10
39045;DHT22;52192;52.002;5.956;2023-07-28T01:35:39;19.90;90.10
39045;DHT22;52192;52.002;5.956;2023-07-28T01:38:04;19.90;90.10
39045;DHT22;52192;52.002;5.956;2023-07-28T01:40:31;19.90;90.20
39045;DHT22;52192;52.002;5.956;2023-07-28T01:42:56;20.00;90.20
39045;DHT22;52192;52.002;5.956;2023-07-28T01:45:22;20.00;90.10
39045;DHT22;52192;52.002;5.956;2023-07-28T01:47:48;20.00;90.10
39045;DHT22;52192;52.002;5.956;2023-07-28T01:50:13;20.00;90.10
39045;DHT22;52192;52.002;5.956;2023-07-28T01:52:39;20.00;90.00
39045;DHT22;52192;52.002;5.956;2023-07-28T01:55:05;20.00;90.10
39045;DHT22;52192;52.002;5.956;2023-07-28T01:57:35;20.00;90.10
39045;DHT22;52192;52.002;5.956;2023-07-28T02:00:01;20.00;90.10
39045;DHT22;52192;52.002;5.956;2023-07-28T02:02:28;20.00;90.10
39045;DHT22;52192;52.002;5.956;2023-07-28T02:04:54;20.00;90.10
39045;DHT22;52192;52.002;5.956;2023-07-28T02:07:20;20.10;90.00
39045;DHT22;52192;52.002;5.956;2023-07-28T02:09:45;20.00;90.30
39045;DHT22;52192;52.002;5.956;2023-07-28T02:12:11;20.00;90.30
39045;DHT22;52192;52.002;5.956;2023-07-28T02:14:37;20.00;90.10
39045;DHT22;52192;52.002;5.956;2023-07-28T02:17:02;20.00;90.10
39045;DHT22;52192;52.002;5.956;2023-07-28T02:19:28;20.00;90.10
39045;DHT22;52192;52.002;5.956;2023-07-28T02:21:54;20.00;90.10
39045;DHT22;52192;52.002;5.956;2023-07-28T02:24:19;20.00;90.10
39045;DHT22;52192;52.002;5.956;2023-07-28T02:26:45;20.00;90.00
39045;DHT22;52192;52.002;5.956;2023-07-28T02:29:11;20.00;90.00
39045;DHT22;52192;52.002;5.956;2023-07-28T02:31:36;20.00;90.00
39045;DHT22;52192;52.002;5.956;2023-07-28T02:34:02;20.00;90.00
39045;DHT22;52192;52.002;5.956;2023-07-28T02:36:27;20.00;90.00
39045;DHT22;52192;52.002;5.956;2023-07-28T02:38:53;20.00;90.00
39045;DHT22;52192;52.002;5.956;2023-07-28T02:41:19;20.10;90.10
39045;DHT22;52192;52.002;5.956;2023-07-28T02:43:44;20.10;90.00
39045;DHT22;52192;52.002;5.956;2023-07-28T02:46:10;20.10;90.00
39045;DHT22;52192;52.002;5.956;2023-07-28T02:48:36;20.10;89.90
39045;DHT22;52192;52.002;5.956;2023-07-28T02:51:01;20.10;89.90
39045;DHT22;52192;52.002;5.956;2023-07-28T02:53:27;20.10;89.90
39045;DHT22;52192;52.002;5.956;2023-07-28T02:55:52;20.10;90.00
39045;DHT22;52192;52.002;5.956;2023-07-28T02:58:19;20.10;90.00
39045;DHT22;52192;52.002;5.956;2023-07-28T03:00:45;20.00;90.00
39045;DHT22;52192;52.002;5.956;2023-07-28T03:03:12;20.10;90.00
39045;DHT22;52192;52.002;5.956;2023-07-28T03:05:38;20.10;90.00
39045;DHT22;52192;52.002;5.956;2023-07-28T03:08:05;20.10;89.90
39045;DHT22;52192;52.002;5.956;2023-07-28T03:10:31;20.10;90.00
39045;DHT22;52192;52.002;5.956;2023-07-28T03:12:57;20.10;90.00
39045;DHT22;52192;52.002;5.956;2023-07-28T03:15:23;20.10;89.90
39045;DHT22;52192;52.002;5.956;2023-07-28T03:17:49;20.10;89.90
39045;DHT22;52192;52.002;5.956;2023-07-28T03:20:15;20.10;90.00
39045;DHT22;52192;52.002;5.956;2023-07-28T03:22:41;20.10;90.00
39045;DHT22;52192;52.002;5.956;2023-07-28T03:25:07;20.10;90.00
39045;DHT22;52192;52.002;5.956;2023-07-28T03:27:33;20.10;90.20
39045;DHT22;52192;52.002;5.956;2023-07-28T03:29:59;20.10;90.00
39045;DHT22;52192;52.002;5.956;2023-07-28T03:32:25;20.10;89.90
39045;DHT22;52192;52.002;5.956;2023-07-28T03:34:50;20.10;89.90
39045;DHT22;52192;52.002;5.956;2023-07-28T03:37:16;20.10;90.00
39045;DHT22;52192;52.002;5.956;2023-07-28T03:39:42;20.10;90.00
39045;DHT22;52192;52.002;5.956;2023-07-28T03:42:08;20.10;90.00
39045;DHT22;52192;52.002;5.956;2023-07-28T03:44:33;20.10;90.00
39045;DHT22;52192;52.002;5.956;2023-07-28T03:46:59;20.10;90.00
39045;DHT22;52192;52.002;5.956;2023-07-28T03:49:25;20.10;90.00
39045;DHT22;52192;52.002;5.956;2023-07-28T03:51:51;20.10;90.00
39045;DHT22;52192;52.002;5.956;2023-07-28T03:54:16;20.10;90.00
39045;DHT22;52192;52.002;5.956;2023-07-28T03:56:42;20.20;90.00
39045;DHT22;52192;52.002;5.956;2023-07-28T03:59:07;20.10;90.00
39045;DHT22;52192;52.002;5.956;2023-07-28T04:01:33;20.20;90.00
39045;DHT22;52192;52.002;5.956;2023-07-28T04:03:59;20.20;90.00
39045;DHT22;52192;52.002;5.956;2023-07-28T04:06:41;20.20;89.80
39045;DHT22;52192;52.002;5.956;2023-07-28T04:09:07;20.30;89.70
39045;DHT22;52192;52.002;5.956;2023-07-28T04:11:33;20.30;89.70
39045;DHT22;52192;52.002;5.956;2023-07-28T04:13:59;20.20;89.60
39045;DHT22;52192;52.002;5.956;2023-07-28T04:16:25;20.20;89.80
39045;DHT22;52192;52.002;5.956;2023-07-28T04:18:50;20.20;89.80
39045;DHT22;52192;52.002;5.956;2023-07-28T04:21:16;20.20;89.80
39045;DHT22;52192;52.002;5.956;2023-07-28T04:23:42;20.20;89.90
39045;DHT22;52192;52.002;5.956;2023-07-28T04:26:09;20.20;90.00
39045;DHT22;52192;52.002;5.956;2023-07-28T04:28:34;20.10;90.10
39045;DHT22;52192;52.002;5.956;2023-07-28T04:31:00;20.10;90.10
39045;DHT22;52192;52.002;5.956;2023-07-28T04:33:26;20.20;90.10
39045;DHT22;52192;52.002;5.956;2023-07-28T04:35:51;20.20;90.10
39045;DHT22;52192;52.002;5.956;2023-07-28T04:38:17;20.20;90.10
39045;DHT22;52192;52.002;5.956;2023-07-28T04:40:44;20.20;90.00
39045;DHT22;52192;52.002;5.956;2023-07-28T04:43:10;20.20;90.00
39045;DHT22;52192;52.002;5.956;2023-07-28T04:45:36;20.20;89.90
39045;DHT22;52192;52.002;5.956;2023-07-28T04:48:02;20.20;89.90
39045;DHT22;52192;52.002;5.956;2023-07-28T04:50:28;20.20;90.00
39045;DHT22;52192;52.002;5.956;2023-07-28T04:52:54;20.20;90.00
39045;DHT22;52192;52.002;5.956;2023-07-28T04:55:20;20.20;90.00
39045;DHT22;52192;52.002;5.956;2023-07-28T04:57:46;20.20;90.10
39045;DHT22;52192;52.002;5.956;2023-07-28T05:00:12;20.20;90.20
39045;DHT22;52192;52.002;5.956;2023-07-28T05:02:38;20.20;90.20
39045;DHT22;52192;52.002;5.956;2023-07-28T05:05:04;20.20;90.10
39045;DHT22;52192;52.002;5.956;2023-07-28T05:07:29;20.20;90.00
39045;DHT22;52192;52.002;5.956;2023-07-28T05:09:55;20.30;90.00
39045;DHT22;52192;52.002;5.956;2023-07-28T05:12:21;20.30;90.00
39045;DHT22;52192;52.002;5.956;2023-07-28T05:14:46;20.20;90.00
39045;DHT22;52192;52.002;5.956;2023-07-28T05:17:12;20.30;90.00
39045;DHT22;52192;52.002;5.956;2023-07-28T05:19:38;20.30;90.10
39045;DHT22;52192;52.002;5.956;2023-07-28T05:22:04;20.20;90.10
39045;DHT22;52192;52.002;5.956;2023-07-28T05:24:34;20.20;90.10
39045;DHT22;52192;52.002;5.956;2023-07-28T05:27:00;20.20;90.10
39045;DHT22;52192;52.002;5.956;2023-07-28T05:29:25;20.20;90.10
39045;DHT22;52192;52.002;5.956;2023-07-28T05:31:51;20.20;90.10
39045;DHT22;52192;52.002;5.956;2023-07-28T05:34:17;20.20;90.10
39045;DHT22;52192;52.002;5.956;2023-07-28T05:36:43;20.20;90.10
39045;DHT22;52192;52.002;5.956;2023-07-28T05:39:09;20.20;90.20
39045;DHT22;52192;52.002;5.956;2023-07-28T05:41:36;20.20;90.20
39045;DHT22;52192;52.002;5.956;2023-07-28T05:44:03;20.20;90.20
39045;DHT22;52192;52.002;5.956;2023-07-28T05:46:29;20.20;90.20
39045;DHT22;52192;52.002;5.956;2023-07-28T05:48:55;20.20;90.20
39045;DHT22;52192;52.002;5.956;2023-07-28T05:51:22;20.20;90.20
39045;DHT22;52192;52.002;5.956;2023-07-28T05:53:49;20.20;90.20
39045;DHT22;52192;52.002;5.956;2023-07-28T05:56:15;20.20;90.30
39045;DHT22;52192;52.002;5.956;2023-07-28T05:58:40;20.20;90.40
39045;DHT22;52192;52.002;5.956;2023-07-28T06:01:06;20.20;90.40
39045;DHT22;52192;52.002;5.956;2023-07-28T06:03:32;20.20;90.40
39045;DHT22;52192;52.002;5.956;2023-07-28T06:05:58;20.20;90.40
39045;DHT22;52192;52.002;5.956;2023-07-28T06:08:23;20.20;90.40
39045;DHT22;52192;52.002;5.956;2023-07-28T06:10:49;20.20;90.40
39045;DHT22;52192;52.002;5.956;2023-07-28T06:13:15;20.20;90.40
39045;DHT22;52192;52.002;5.956;2023-07-28T06:15:41;20.20;90.40
39045;DHT22;52192;52.002;5.956;2023-07-28T06:18:07;20.20;90.40
39045;DHT22;52192;52.002;5.956;2023-07-28T06:20:33;20.20;90.40
39045;DHT22;52192;52.002;5.956;2023-07-28T06:23:00;20.30;90.30
39045;DHT22;52192;52.002;5.956;2023-07-28T06:25:26;20.30;90.30
39045;DHT22;52192;52.002;5.956;2023-07-28T06:27:51;20.40;90.20
39045;DHT22;52192;52.002;5.956;2023-07-28T06:30:17;20.50;90.20
39045;DHT22;52192;52.002;5.956;2023-07-28T06:32:43;20.50;90.10
39045;DHT22;52192;52.002;5.956;2023-07-28T06:35:08;20.60;90.10
39045;DHT22;52192;52.002;5.956;2023-07-28T06:37:37;20.60;90.00
39045;DHT22;52192;52.002;5.956;2023-07-28T06:40:07;20.60;90.00
39045;DHT22;52192;52.002;5.956;2023-07-28T06:42:35;20.60;90.00
39045;DHT22;52192;52.002;5.956;2023-07-28T06:45:05;20.60;90.00
39045;DHT22;52192;52.002;5.956;2023-07-28T06:47:30;20.60;90.00
39045;DHT22;52192;52.002;5.956;2023-07-28T06:49:56;20.50;90.00
39045;DHT22;52192;52.002;5.956;2023-07-28T06:52:22;20.50;90.00
39045;DHT22;52192;52.002;5.956;2023-07-28T06:54:48;20.50;90.00
39045;DHT22;52192;52.002;5.956;2023-07-28T06:57:15;20.60;90.00
39045;DHT22;52192;52.002;5.956;2023-07-28T06:59:41;20.60;90.00
39045;DHT22;52192;52.002;5.956;2023-07-28T07:02:07;20.60;90.00
39045;DHT22;52192;52.002;5.956;2023-07-28T07:04:34;20.60;90.00
39045;DHT22;52192;52.002;5.956;2023-07-28T07:07:00;20.60;89.90
39045;DHT22;52192;52.002;5.956;2023-07-28T07:09:25;20.60;90.00
39045;DHT22;52192;52.002;5.956;2023-07-28T07:11:51;20.60;90.00
39045;DHT22;52192;52.002;5.956;2023-07-28T07:14:17;20.60;90.00
39045;DHT22;52192;52.002;5.956;2023-07-28T07:16:43;20.60;90.00
39045;DHT22;52192;52.002;5.956;2023-07-28T07:19:08;20.60;90.10
39045;DHT22;52192;52.002;5.956;2023-07-28T07:21:34;20.50;90.10
39045;DHT22;52192;52.002;5.956;2023-07-28T07:24:00;20.60;90.10
39045;DHT22;52192;52.002;5.956;2023-07-28T07:26:27;20.60;90.10
39045;DHT22;52192;52.002;5.956;2023-07-28T07:28:53;20.60;90.10
39045;DHT22;52192;52.002;5.956;2023-07-28T07:31:19;20.70;90.10
39045;DHT22;52192;52.002;5.956;2023-07-28T07:33:45;20.70;90.00
39045;DHT22;52192;52.002;5.956;2023-07-28T07:36:15;20.80;90.00
39045;DHT22;52192;52.002;5.956;2023-07-28T07:38:42;20.90;89.80
39045;DHT22;52192;52.002;5.956;2023-07-28T07:41:08;20.90;89.70
39045;DHT22;52192;52.002;5.956;2023-07-28T07:43:36;21.00;89.70
39045;DHT22;52192;52.002;5.956;2023-07-28T07:46:01;20.90;89.60
39045;DHT22;52192;52.002;5.956;2023-07-28T07:48:27;21.00;89.60
39045;DHT22;52192;52.002;5.956;2023-07-28T07:50:53;21.00;89.60
39045;DHT22;52192;52.002;5.956;2023-07-28T07:53:19;21.00;89.60
39045;DHT22;52192;52.002;5.956;2023-07-28T07:55:44;20.90;89.60
39045;DHT22;52192;52.002;5.956;2023-07-28T07:58:10;20.90;89.60
39045;DHT22;52192;52.002;5.956;2023-07-28T08:00:39;20.90;89.50
39045;DHT22;52192;52.002;5.956;2023-07-28T08:03:04;20.90;89.60
39045;DHT22;52192;52.002;5.956;2023-07-28T08:05:31;21.00;89.60
39045;DHT22;52192;52.002;5.956;2023-07-28T08:07:56;21.00;89.60
39045;DHT22;52192;52.002;5.956;2023-07-28T08:10:22;21.00;89.40
39045;DHT22;52192;52.002;5.956;2023-07-28T08:12:49;21.00;89.30
39045;DHT22;52192;52.002;5.956;2023-07-28T08:15:14;21.10;89.20
39045;DHT22;52192;52.002;5.956;2023-07-28T08:17:40;21.10;89.10
39045;DHT22;52192;52.002;5.956;2023-07-28T08:20:07;21.10;88.90
39045;DHT22;52192;52.002;5.956;2023-07-28T08:22:33;21.20;89.00
39045;DHT22;52192;52.002;5.956;2023-07-28T08:24:58;21.20;88.80
39045;DHT22;52192;52.002;5.956;2023-07-28T08:27:24;21.20;88.80
39045;DHT22;52192;52.002;5.956;2023-07-28T08:29:50;21.30;88.70
39045;DHT22;52192;52.002;5.956;2023-07-28T08:32:15;21.20;88.60
39045;DHT22;52192;52.002;5.956;2023-07-28T08:34:41;21.30;89.30
39045;DHT22;52192;52.002;5.956;2023-07-28T08:37:07;21.30;88.50
39045;DHT22;52192;52.002;5.956;2023-07-28T08:39:33;21.30;88.40
39045;DHT22;52192;52.002;5.956;2023-07-28T08:42:03;21.20;88.40
39045;DHT22;52192;52.002;5.956;2023-07-28T08:44:33;21.30;88.60
39045;DHT22;52192;52.002;5.956;2023-07-28T08:47:00;21.30;88.60
39045;DHT22;52192;52.002;5.956;2023-07-28T08:49:26;21.30;88.50
39045;DHT22;52192;52.002;5.956;2023-07-28T08:51:56;21.30;88.30
39045;DHT22;52192;52.002;5.956;2023-07-28T08:54:23;21.20;88.20
39045;DHT22;52192;52.002;5.956;2023-07-28T08:56:48;21.10;88.40
39045;DHT22;52192;52.002;5.956;2023-07-28T08:59:24;21.20;88.30
39045;DHT22;52192;52.002;5.956;2023-07-28T09:01:52;21.20;88.40
39045;DHT22;52192;52.002;5.956;2023-07-28T09:04:20;21.30;88.40
39045;DHT22;52192;52.002;5.956;2023-07-28T09:06:49;21.40;88.20
39045;DHT22;52192;52.002;5.956;2023-07-28T09:09:15;21.60;87.90
39045;DHT22;52192;52.002;5.956;2023-07-28T09:11:59;21.70;87.70
39045;DHT22;52192;52.002;5.956;2023-07-28T09:14:26;21.80;87.40
39045;DHT22;52192;52.002;5.956;2023-07-28T09:16:52;21.70;87.20
39045;DHT22;52192;52.002;5.956;2023-07-28T09:19:20;21.70;87.30
39045;DHT22;52192;52.002;5.956;2023-07-28T09:22:00;21.70;86.90
39045;DHT22;52192;52.002;5.956;2023-07-28T09:24:35;21.70;87.10
39045;DHT22;52192;52.002;5.956;2023-07-28T09:27:02;21.80;87.30
39045;DHT22;52192;52.002;5.956;2023-07-28T09:29:28;21.70;87.10
39045;DHT22;52192;52.002;5.956;2023-07-28T09:32:02;21.80;87.00
39045;DHT22;52192;52.002;5.956;2023-07-28T09:34:28;21.80;87.00
39045;DHT22;52192;52.002;5.956;2023-07-28T09:36:55;21.70;87.00
39045;DHT22;52192;52.002;5.956;2023-07-28T09:39:21;21.80;87.00
39045;DHT22;52192;52.002;5.956;2023-07-28T09:41:47;21.80;86.60
39045;DHT22;52192;52.002;5.956;2023-07-28T09:44:13;21.80;86.60
39045;DHT22;52192;52.002;5.956;2023-07-28T09:46:57;21.90;86.60
39045;DHT22;52192;52.002;5.956;2023-07-28T09:49:37;22.20;86.50
39045;DHT22;52192;52.002;5.956;2023-07-28T09:52:07;22.40;84.70
39045;DHT22;52192;52.002;5.956;2023-07-28T09:54:40;22.70;84.80
39045;DHT22;52192;52.002;5.956;2023-07-28T09:57:12;23.00;84.30
39045;DHT22;52192;52.002;5.956;2023-07-28T09:59:40;23.30;83.90
39045;DHT22;52192;52.002;5.956;2023-07-28T10:02:07;23.50;83.40
39045;DHT22;52192;52.002;5.956;2023-07-28T10:04:34;23.70;82.20
39045;DHT22;52192;52.002;5.956;2023-07-28T10:07:02;23.80;81.70
39045;DHT22;52192;52.002;5.956;2023-07-28T10:09:30;23.70;81.60
39045;DHT22;52192;52.002;5.956;2023-07-28T10:11:59;23.60;81.30
39045;DHT22;52192;52.002;5.956;2023-07-28T10:16:52;23.60;81.70
39045;DHT22;52192;52.002;5.956;2023-07-28T10:19:27;23.70;81.00
39045;DHT22;52192;52.002;5.956;2023-07-28T10:22:07;23.80;80.80
39045;DHT22;52192;52.002;5.956;2023-07-28T10:24:52;24.10;80.60
39045;DHT22;52192;52.002;5.956;2023-07-28T10:27:50;24.20;80.10
39045;DHT22;52192;52.002;5.956;2023-07-28T10:30:15;24.40;79.30
39045;DHT22;52192;52.002;5.956;2023-07-28T10:32:44;24.50;79.20
39045;DHT22;52192;52.002;5.956;2023-07-28T10:35:23;24.40;78.30
39045;DHT22;52192;52.002;5.956;2023-07-28T10:37:49;24.40;79.20
39045;DHT22;52192;52.002;5.956;2023-07-28T10:42:53;24.50;78.00
39045;DHT22;52192;52.002;5.956;2023-07-28T10:45:19;24.60;78.60
39045;DHT22;52192;52.002;5.956;2023-07-28T10:47:46;24.80;78.70
39045;DHT22;52192;52.002;5.956;2023-07-28T10:50:14;24.90;77.90
39045;DHT22;52192;52.002;5.956;2023-07-28T10:52:41;24.80;77.40
39045;DHT22;52192;52.002;5.956;2023-07-28T10:57:44;24.50;77.60
39045;DHT22;52192;52.002;5.956;2023-07-28T11:00:11;24.50;77.40
39045;DHT22;52192;52.002;5.956;2023-07-28T11:02:44;24.60;77.40
39045;DHT22;52192;52.002;5.956;2023-07-28T11:05:21;24.70;77.40
39045;DHT22;52192;52.002;5.956;2023-07-28T11:07:47;24.70;76.70
39045;DHT22;52192;52.002;5.956;2023-07-28T11:10:13;24.70;76.80
39045;DHT22;52192;52.002;5.956;2023-07-28T11:12:44;24.70;76.20
39045;DHT22;52192;52.002;5.956;2023-07-28T11:15:10;24.90;76.40
39045;DHT22;52192;52.002;5.956;2023-07-28T11:17:39;25.10;75.50
39045;DHT22;52192;52.002;5.956;2023-07-28T11:20:18;25.30;75.10
39045;DHT22;52192;52.002;5.956;2023-07-28T11:22:46;25.30;74.40
39045;DHT22;52192;52.002;5.956;2023-07-28T11:25:12;25.20;74.80
39045;DHT22;52192;52.002;5.956;2023-07-28T11:27:39;25.10;75.30
39045;DHT22;52192;52.002;5.956;2023-07-28T11:30:07;25.10;74.90
39045;DHT22;52192;52.002;5.956;2023-07-28T11:32:36;25.30;75.10
39045;DHT22;52192;52.002;5.956;2023-07-28T11:35:06;25.30;74.60
39045;DHT22;52192;52.002;5.956;2023-07-28T11:37:33;25.30;74.10
39045;DHT22;52192;52.002;5.956;2023-07-28T11:40:00;25.30;73.70
39045;DHT22;52192;52.002;5.956;2023-07-28T11:42:30;25.30;73.10
39045;DHT22;52192;52.002;5.956;2023-07-28T11:44:57;25.30;73.60
39045;DHT22;52192;52.002;5.956;2023-07-28T11:47:24;25.50;72.90
39045;DHT22;52192;52.002;5.956;2023-07-28T11:49:49;25.60;73.10
39045;DHT22;52192;52.002;5.956;2023-07-28T11:52:17;25.50;73.00
39045;DHT22;52192;52.002;5.956;2023-07-28T11:54:43;25.40;73.00
39045;DHT22;52192;52.002;5.956;2023-07-28T11:57:10;25.40;72.60
39045;DHT22;52192;52.002;5.956;2023-07-28T11:59:35;25.30;73.30
39045;DHT22;52192;52.002;5.956;2023-07-28T12:02:03;25.40;71.80
39045;DHT22;52192;52.002;5.956;2023-07-28T12:04:38;25.40;72.20
39045;DHT22;52192;52.002;5.956;2023-07-28T12:07:12;25.40;72.30
39045;DHT22;52192;52.002;5.956;2023-07-28T12:12:19;25.70;72.30
39045;DHT22;52192;52.002;5.956;2023-07-28T12:14:45;25.70;72.10
39045;DHT22;52192;52.002;5.956;2023-07-28T12:17:18;25.70;71.40
39045;DHT22;52192;52.002;5.956;2023-07-28T12:20:01;25.70;70.70
39045;DHT22;52192;52.002;5.956;2023-07-28T12:22:27;25.70;71.40
39045;DHT22;52192;52.002;5.956;2023-07-28T12:24:53;25.80;71.80
39045;DHT22;52192;52.002;5.956;2023-07-28T12:27:19;25.90;71.20
39045;DHT22;52192;52.002;5.956;2023-07-28T12:29:52;25.90;71.00
39045;DHT22;52192;52.002;5.956;2023-07-28T12:32:19;26.00;71.40
39045;DHT22;52192;52.002;5.956;2023-07-28T12:34:44;26.10;71.40
39045;DHT22;52192;52.002;5.956;2023-07-28T12:37:10;26.10;69.60
39045;DHT22;52192;52.002;5.956;2023-07-28T12:39:37;26.00;69.80
39045;DHT22;52192;52.002;5.956;2023-07-28T12:42:07;25.90;70.40
39045;DHT22;52192;52.002;5.956;2023-07-28T12:44:33;25.90;70.70
39045;DHT22;52192;52.002;5.956;2023-07-28T12:46:59;26.10;70.30
39045;DHT22;52192;52.002;5.956;2023-07-28T12:49:25;26.30;70.10
39045;DHT22;52192;52.002;5.956;2023-07-28T12:51:50;26.60;69.50
39045;DHT22;52192;52.002;5.956;2023-07-28T12:54:16;26.80;69.60
39045;DHT22;52192;52.002;5.956;2023-07-28T12:56:42;27.10;69.40
39045;DHT22;52192;52.002;5.956;2023-07-28T12:59:08;27.20;68.70
39045;DHT22;52192;52.002;5.956;2023-07-28T13:01:37;27.10;68.50
39045;DHT22;52192;52.002;5.956;2023-07-28T13:04:03;27.10;67.90
39045;DHT22;52192;52.002;5.956;2023-07-28T13:06:28;27.20;67.40
39045;DHT22;52192;52.002;5.956;2023-07-28T13:08:54;27.30;66.10
39045;DHT22;52192;52.002;5.956;2023-07-28T13:11:19;27.40;65.50
39045;DHT22;52192;52.002;5.956;2023-07-28T13:13:45;27.50;65.60
39045;DHT22;52192;52.002;5.956;2023-07-28T13:16:11;27.60;65.50
39045;DHT22;52192;52.002;5.956;2023-07-28T13:18:37;27.80;64.40
39045;DHT22;52192;52.002;5.956;2023-07-28T13:21:02;28.00;64.80
39045;DHT22;52192;52.002;5.956;2023-07-28T13:23:28;28.20;64.80
39045;DHT22;52192;52.002;5.956;2023-07-28T13:25:54;28.40;64.70
39045;DHT22;52192;52.002;5.956;2023-07-28T13:28:20;28.60;63.50
39045;DHT22;52192;52.002;5.956;2023-07-28T13:30:45;28.50;62.00
39045;DHT22;52192;52.002;5.956;2023-07-28T13:33:11;28.50;62.10
39045;DHT22;52192;52.002;5.956;2023-07-28T13:35:37;28.50;62.50
39045;DHT22;52192;52.002;5.956;2023-07-28T13:38:02;28.50;62.30
39045;DHT22;52192;52.002;5.956;2023-07-28T13:40:28;28.70;62.30
39045;DHT22;52192;52.002;5.956;2023-07-28T13:42:54;28.80;61.90
39045;DHT22;52192;52.002;5.956;2023-07-28T13:45:19;29.00;62.00
39045;DHT22;52192;52.002;5.956;2023-07-28T13:47:45;29.20;61.90
39045;DHT22;52192;52.002;5.956;2023-07-28T13:50:11;29.50;62.10
39045;DHT22;52192;52.002;5.956;2023-07-28T13:52:39;29.60;61.30
39045;DHT22;52192;52.002;5.956;2023-07-28T13:55:05;29.50;61.30
39045;DHT22;52192;52.002;5.956;2023-07-28T13:57:32;29.20;60.80
39045;DHT22;52192;52.002;5.956;2023-07-28T13:59:58;29.10;60.80
39045;DHT22;52192;52.002;5.956;2023-07-28T14:02:23;28.90;60.20
39045;DHT22;52192;52.002;5.956;2023-07-28T14:04:49;28.80;60.40
39045;DHT22;52192;52.002;5.956;2023-07-28T14:07:15;28.80;60.40
39045;DHT22;52192;52.002;5.956;2023-07-28T14:09:40;29.00;60.10
39045;DHT22;52192;52.002;5.956;2023-07-28T14:12:06;29.10;59.20
39045;DHT22;52192;52.002;5.956;2023-07-28T14:14:32;29.00;58.10
39045;DHT22;52192;52.002;5.956;2023-07-28T14:16:58;29.10;59.20
39045;DHT22;52192;52.002;5.956;2023-07-28T14:19:23;29.10;57.20
39045;DHT22;52192;52.002;5.956;2023-07-28T14:21:49;29.20;57.50
39045;DHT22;52192;52.002;5.956;2023-07-28T14:24:15;29.30;58.10
39045;DHT22;52192;52.002;5.956;2023-07-28T14:26:40;29.40;58.10
39045;DHT22;52192;52.002;5.956;2023-07-28T14:29:06;29.40;58.00
39045;DHT22;52192;52.002;5.956;2023-07-28T14:31:32;29.30;57.10
39045;DHT22;52192;52.002;5.956;2023-07-28T14:33:57;29.40;57.90
39045;DHT22;52192;52.002;5.956;2023-07-28T14:36:23;29.40;58.10
39045;DHT22;52192;52.002;5.956;2023-07-28T14:38:49;29.30;58.90
39045;DHT22;52192;52.002;5.956;2023-07-28T14:41:14;29.40;58.80
39045;DHT22;52192;52.002;5.956;2023-07-28T14:43:40;29.30;57.70
39045;DHT22;52192;52.002;5.956;2023-07-28T14:46:06;29.10;58.40
39045;DHT22;52192;52.002;5.956;2023-07-28T14:48:31;28.80;58.60
39045;DHT22;52192;52.002;5.956;2023-07-28T14:50:57;28.60;59.30
39045;DHT22;52192;52.002;5.956;2023-07-28T14:53:34;28.50;59.10
39045;DHT22;52192;52.002;5.956;2023-07-28T14:56:00;28.50;59.60
39045;DHT22;52192;52.002;5.956;2023-07-28T14:58:27;28.40;59.00
39045;DHT22;52192;52.002;5.956;2023-07-28T15:00:53;28.30;59.50
39045;DHT22;52192;52.002;5.956;2023-07-28T15:03:19;28.20;59.90
39045;DHT22;52192;52.002;5.956;2023-07-28T15:05:45;28.30;59.80
39045;DHT22;52192;52.002;5.956;2023-07-28T15:08:11;28.30;59.00
39045;DHT22;52192;52.002;5.956;2023-07-28T15:10:36;28.40;59.50
39045;DHT22;52192;52.002;5.956;2023-07-28T15:13:02;28.50;59.50
39045;DHT22;52192;52.002;5.956;2023-07-28T15:15:28;28.50;59.40
39045;DHT22;52192;52.002;5.956;2023-07-28T15:17:53;28.50;59.60
39045;DHT22;52192;52.002;5.956;2023-07-28T15:20:19;28.30;60.10
39045;DHT22;52192;52.002;5.956;2023-07-28T15:22:47;28.10;60.40
39045;DHT22;52192;52.002;5.956;2023-07-28T15:25:13;27.80;60.70
39045;DHT22;52192;52.002;5.956;2023-07-28T15:27:42;27.60;60.80
39045;DHT22;52192;52.002;5.956;2023-07-28T15:30:08;27.40;61.50
39045;DHT22;52192;52.002;5.956;2023-07-28T15:32:35;27.30;61.60
39045;DHT22;52192;52.002;5.956;2023-07-28T15:35:01;27.30;62.30
39045;DHT22;52192;52.002;5.956;2023-07-28T15:37:28;27.30;62.50
39045;DHT22;52192;52.002;5.956;2023-07-28T15:39:53;27.20;62.70
39045;DHT22;52192;52.002;5.956;2023-07-28T15:42:19;27.10;63.10
39045;DHT22;52192;52.002;5.956;2023-07-28T15:44:45;27.10;63.00